sensor_id;sensor_type;location;lat;lon;timestamp;P1;durP1;ratioP1;P2;durP2;ratioP2
49101;SDS011;34913;47.520;19.186;2023-06-14T00:01:34;7.78;;;5.93;;
49101;SDS011;34913;47.520;19.186;2023-06-14T00:04:00;7.75;;;5.93;;
49101;SDS011;34913;47.520;19.186;2023-06-14T00:06:26;8.35;;;5.97;;
49101;SDS011;34913;47.520;19.186;2023-06-14T00:08:53;8.10;;;5.80;;
49101;SDS011;34913;47.520;19.186;2023-06-14T00:11:19;9.95;;;6.60;;
49101;SDS011;34913;47.520;19.186;2023-06-14T00:13:45;7.40;;;5.40;;
49101;SDS011;34913;47.520;19.186;2023-06-14T00:16:10;10.05;;;5.72;;
49101;SDS011;34913;47.520;19.186;2023-06-14T00:18:36;7.75;;;5.93;;
49101;SDS011;34913;47.520;19.186;2023-06-14T00:21:02;7.82;;;5.80;;
49101;SDS011;34913;47.520;19.186;2023-06-14T00:23:29;8.65;;;6.20;;
49101;SDS011;34913;47.520;19.186;2023-06-14T00:25:54;8.45;;;6.35;;
49101;SDS011;34913;47.520;19.186;2023-06-14T00:28:20;8.93;;;6.30;;
49101;SDS011;34913;47.520;19.186;2023-06-14T00:30:46;8.90;;;6.32;;
49101;SDS011;34913;47.520;19.186;2023-06-14T00:33:12;9.80;;;6.45;;
49101;SDS011;34913;47.520;19.186;2023-06-14T00:35:37;9.20;;;6.20;;
49101;SDS011;34913;47.520;19.186;2023-06-14T00:38:03;11.15;;;6.70;;
49101;SDS011;34913;47.520;19.186;2023-06-14T00:40:29;8.65;;;6.55;;
49101;SDS011;34913;47.520;19.186;2023-06-14T00:42:54;9.50;;;6.65;;
49101;SDS011;34913;47.520;19.186;2023-06-14T00:45:19;8.82;;;7.10;;
49101;SDS011;34913;47.520;19.186;2023-06-14T00:47:45;9.30;;;6.63;;
49101;SDS011;34913;47.520;19.186;2023-06-14T00:50:12;9.02;;;6.97;;
49101;SDS011;34913;47.520;19.186;2023-06-14T00:52:38;9.77;;;7.20;;
49101;SDS011;34913;47.520;19.186;2023-06-14T00:55:05;9.57;;;6.45;;
49101;SDS011;34913;47.520;19.186;2023-06-14T00:57:31;9.30;;;6.95;;
49101;SDS011;34913;47.520;19.186;2023-06-14T00:59:57;9.10;;;6.85;;
49101;SDS011;34913;47.520;19.186;2023-06-14T01:02:22;9.32;;;7.05;;
49101;SDS011;34913;47.520;19.186;2023-06-14T01:04:49;12.55;;;6.93;;
49101;SDS011;34913;47.520;19.186;2023-06-14T01:10:12;12.85;;;7.07;;
49101;SDS011;34913;47.520;19.186;2023-06-14T01:15:32;11.88;;;7.00;;
49101;SDS011;34913;47.520;19.186;2023-06-14T01:17:59;10.68;;;7.35;;
49101;SDS011;34913;47.520;19.186;2023-06-14T01:20:28;9.98;;;7.25;;
49101;SDS011;34913;47.520;19.186;2023-06-14T01:22:55;9.55;;;6.97;;
49101;SDS011;34913;47.520;19.186;2023-06-14T01:25:21;13.68;;;7.80;;
49101;SDS011;34913;47.520;19.186;2023-06-14T01:27:52;11.15;;;8.00;;
49101;SDS011;34913;47.520;19.186;2023-06-14T01:30:20;12.25;;;7.65;;
49101;SDS011;34913;47.520;19.186;2023-06-14T01:32:47;11.90;;;8.13;;
49101;SDS011;34913;47.520;19.186;2023-06-14T01:35:15;12.50;;;7.50;;
49101;SDS011;34913;47.520;19.186;2023-06-14T01:37:41;11.80;;;7.70;;
49101;SDS011;34913;47.520;19.186;2023-06-14T01:40:08;11.68;;;8.00;;
49101;SDS011;34913;47.520;19.186;2023-06-14T01:42:36;10.77;;;7.60;;
49101;SDS011;34913;47.520;19.186;2023-06-14T01:45:04;10.13;;;7.70;;
49101;SDS011;34913;47.520;19.186;2023-06-14T01:47:33;9.95;;;7.07;;
49101;SDS011;34913;47.520;19.186;2023-06-14T01:50:01;12.65;;;7.78;;
49101;SDS011;34913;47.520;19.186;2023-06-14T01:52:27;10.40;;;7.05;;
49101;SDS011;34913;47.520;19.186;2023-06-14T01:54:53;10.25;;;7.63;;
49101;SDS011;34913;47.520;19.186;2023-06-14T01:57:18;14.20;;;8.23;;
49101;SDS011;34913;47.520;19.186;2023-06-14T01:59:45;12.38;;;8.00;;
49101;SDS011;34913;47.520;19.186;2023-06-14T02:02:13;17.98;;;8.65;;
49101;SDS011;34913;47.520;19.186;2023-06-14T02:04:39;12.30;;;8.60;;
49101;SDS011;34913;47.520;19.186;2023-06-14T02:07:04;13.40;;;8.05;;
49101;SDS011;34913;47.520;19.186;2023-06-14T02:09:30;12.23;;;8.30;;
49101;SDS011;34913;47.520;19.186;2023-06-14T02:11:55;13.50;;;7.85;;
49101;SDS011;34913;47.520;19.186;2023-06-14T02:14:21;10.93;;;8.05;;
49101;SDS011;34913;47.520;19.186;2023-06-14T02:16:46;12.10;;;8.63;;
49101;SDS011;34913;47.520;19.186;2023-06-14T02:19:14;15.05;;;8.65;;
49101;SDS011;34913;47.520;19.186;2023-06-14T02:21:41;12.25;;;7.82;;
49101;SDS011;34913;47.520;19.186;2023-06-14T02:24:06;15.60;;;8.40;;
49101;SDS011;34913;47.520;19.186;2023-06-14T02:26:32;14.18;;;8.75;;
49101;SDS011;34913;47.520;19.186;2023-06-14T02:28:57;13.02;;;8.50;;
49101;SDS011;34913;47.520;19.186;2023-06-14T02:31:23;14.57;;;8.75;;
49101;SDS011;34913;47.520;19.186;2023-06-14T02:33:51;18.80;;;9.23;;
49101;SDS011;34913;47.520;19.186;2023-06-14T02:36:16;15.77;;;9.00;;
49101;SDS011;34913;47.520;19.186;2023-06-14T02:38:42;13.27;;;8.35;;
49101;SDS011;34913;47.520;19.186;2023-06-14T02:41:07;16.10;;;8.57;;
49101;SDS011;34913;47.520;19.186;2023-06-14T02:43:32;15.57;;;8.27;;
49101;SDS011;34913;47.520;19.186;2023-06-14T02:45:58;14.13;;;8.90;;
49101;SDS011;34913;47.520;19.186;2023-06-14T02:48:24;13.82;;;8.60;;
49101;SDS011;34913;47.520;19.186;2023-06-14T02:50:49;14.10;;;8.20;;
49101;SDS011;34913;47.520;19.186;2023-06-14T02:53:15;11.40;;;8.18;;
49101;SDS011;34913;47.520;19.186;2023-06-14T02:55:41;12.00;;;8.20;;
49101;SDS011;34913;47.520;19.186;2023-06-14T02:58:06;12.43;;;8.40;;
49101;SDS011;34913;47.520;19.186;2023-06-14T03:00:32;11.45;;;8.02;;
49101;SDS011;34913;47.520;19.186;2023-06-14T03:02:57;12.57;;;8.35;;
49101;SDS011;34913;47.520;19.186;2023-06-14T03:05:26;11.73;;;7.95;;
49101;SDS011;34913;47.520;19.186;2023-06-14T03:07:53;11.50;;;7.80;;
49101;SDS011;34913;47.520;19.186;2023-06-14T03:10:19;11.38;;;8.02;;
49101;SDS011;34913;47.520;19.186;2023-06-14T03:12:44;12.07;;;7.43;;
49101;SDS011;34913;47.520;19.186;2023-06-14T03:15:10;12.20;;;7.53;;
49101;SDS011;34913;47.520;19.186;2023-06-14T03:17:38;13.23;;;8.30;;
49101;SDS011;34913;47.520;19.186;2023-06-14T03:20:04;14.85;;;8.80;;
49101;SDS011;34913;47.520;19.186;2023-06-14T03:22:30;13.98;;;8.27;;
49101;SDS011;34913;47.520;19.186;2023-06-14T03:24:58;12.35;;;8.82;;
49101;SDS011;34913;47.520;19.186;2023-06-14T03:27:24;12.68;;;8.43;;
49101;SDS011;34913;47.520;19.186;2023-06-14T03:29:50;13.48;;;8.65;;
49101;SDS011;34913;47.520;19.186;2023-06-14T03:32:16;14.48;;;8.85;;
49101;SDS011;34913;47.520;19.186;2023-06-14T03:34:41;14.15;;;8.38;;
49101;SDS011;34913;47.520;19.186;2023-06-14T03:37:07;12.65;;;8.98;;
49101;SDS011;34913;47.520;19.186;2023-06-14T03:39:33;14.80;;;8.65;;
49101;SDS011;34913;47.520;19.186;2023-06-14T03:41:58;15.23;;;9.35;;
49101;SDS011;34913;47.520;19.186;2023-06-14T03:44:26;14.07;;;9.13;;
49101;SDS011;34913;47.520;19.186;2023-06-14T03:46:51;15.13;;;9.02;;
49101;SDS011;34913;47.520;19.186;2023-06-14T03:49:17;13.02;;;8.77;;
49101;SDS011;34913;47.520;19.186;2023-06-14T03:51:42;13.27;;;8.88;;
49101;SDS011;34913;47.520;19.186;2023-06-14T03:54:08;12.98;;;8.63;;
49101;SDS011;34913;47.520;19.186;2023-06-14T03:56:33;13.00;;;8.23;;
49101;SDS011;34913;47.520;19.186;2023-06-14T03:58:59;11.48;;;7.53;;
49101;SDS011;34913;47.520;19.186;2023-06-14T04:01:25;13.10;;;8.18;;
49101;SDS011;34913;47.520;19.186;2023-06-14T04:03:54;12.70;;;7.93;;
49101;SDS011;34913;47.520;19.186;2023-06-14T04:06:20;11.00;;;7.20;;
49101;SDS011;34913;47.520;19.186;2023-06-14T04:08:45;10.70;;;6.93;;
49101;SDS011;34913;47.520;19.186;2023-06-14T04:11:11;12.50;;;7.57;;
49101;SDS011;34913;47.520;19.186;2023-06-14T04:13:36;11.45;;;6.75;;
49101;SDS011;34913;47.520;19.186;2023-06-14T04:16:04;11.95;;;6.80;;
49101;SDS011;34913;47.520;19.186;2023-06-14T04:18:29;10.95;;;6.80;;
49101;SDS011;34913;47.520;19.186;2023-06-14T04:20:54;8.90;;;6.57;;
49101;SDS011;34913;47.520;19.186;2023-06-14T04:23:21;9.30;;;6.18;;
49101;SDS011;34913;47.520;19.186;2023-06-14T04:25:47;9.32;;;6.28;;
49101;SDS011;34913;47.520;19.186;2023-06-14T04:28:14;9.90;;;6.60;;
49101;SDS011;34913;47.520;19.186;2023-06-14T04:30:43;10.85;;;6.60;;
49101;SDS011;34913;47.520;19.186;2023-06-14T04:33:09;8.38;;;6.30;;
49101;SDS011;34913;47.520;19.186;2023-06-14T04:35:35;10.05;;;6.25;;
49101;SDS011;34913;47.520;19.186;2023-06-14T04:38:02;8.75;;;6.13;;
49101;SDS011;34913;47.520;19.186;2023-06-14T04:40:30;8.23;;;6.07;;
49101;SDS011;34913;47.520;19.186;2023-06-14T04:42:58;8.90;;;6.28;;
49101;SDS011;34913;47.520;19.186;2023-06-14T04:45:24;9.23;;;6.25;;
49101;SDS011;34913;47.520;19.186;2023-06-14T04:47:56;8.50;;;5.93;;
49101;SDS011;34913;47.520;19.186;2023-06-14T04:50:24;8.05;;;6.05;;
49101;SDS011;34913;47.520;19.186;2023-06-14T04:52:50;7.80;;;6.03;;
49101;SDS011;34913;47.520;19.186;2023-06-14T04:55:16;9.60;;;6.25;;
49101;SDS011;34913;47.520;19.186;2023-06-14T04:57:44;8.23;;;6.00;;
49101;SDS011;34913;47.520;19.186;2023-06-14T05:00:10;9.00;;;6.15;;
49101;SDS011;34913;47.520;19.186;2023-06-14T05:02:36;8.23;;;5.85;;
49101;SDS011;34913;47.520;19.186;2023-06-14T05:05:03;8.60;;;6.00;;
49101;SDS011;34913;47.520;19.186;2023-06-14T05:07:29;8.70;;;6.45;;
49101;SDS011;34913;47.520;19.186;2023-06-14T05:09:55;7.88;;;5.85;;
49101;SDS011;34913;47.520;19.186;2023-06-14T05:12:20;8.43;;;6.32;;
49101;SDS011;34913;47.520;19.186;2023-06-14T05:14:46;8.30;;;5.95;;
49101;SDS011;34913;47.520;19.186;2023-06-14T05:17:11;6.60;;;5.32;;
49101;SDS011;34913;47.520;19.186;2023-06-14T05:19:37;7.78;;;5.80;;
49101;SDS011;34913;47.520;19.186;2023-06-14T05:22:02;8.65;;;5.45;;
49101;SDS011;34913;47.520;19.186;2023-06-14T05:24:28;8.35;;;5.40;;
49101;SDS011;34913;47.520;19.186;2023-06-14T05:26:55;7.85;;;5.45;;
49101;SDS011;34913;47.520;19.186;2023-06-14T05:29:21;7.10;;;5.57;;
49101;SDS011;34913;47.520;19.186;2023-06-14T05:31:46;7.93;;;5.72;;
49101;SDS011;34913;47.520;19.186;2023-06-14T05:34:12;7.97;;;5.90;;
49101;SDS011;34913;47.520;19.186;2023-06-14T05:36:37;7.22;;;5.20;;
49101;SDS011;34913;47.520;19.186;2023-06-14T05:39:03;8.05;;;5.65;;
49101;SDS011;34913;47.520;19.186;2023-06-14T05:41:30;10.18;;;5.63;;
49101;SDS011;34913;47.520;19.186;2023-06-14T05:43:56;8.25;;;6.10;;
49101;SDS011;34913;47.520;19.186;2023-06-14T05:46:22;8.15;;;5.57;;
49101;SDS011;34913;47.520;19.186;2023-06-14T05:48:53;7.55;;;5.63;;
49101;SDS011;34913;47.520;19.186;2023-06-14T05:51:20;11.60;;;5.70;;
49101;SDS011;34913;47.520;19.186;2023-06-14T05:53:49;8.50;;;5.72;;
49101;SDS011;34913;47.520;19.186;2023-06-14T05:56:15;8.98;;;5.90;;
49101;SDS011;34913;47.520;19.186;2023-06-14T05:58:42;7.10;;;5.28;;
49101;SDS011;34913;47.520;19.186;2023-06-14T06:01:08;8.73;;;5.57;;
49101;SDS011;34913;47.520;19.186;2023-06-14T06:03:34;7.05;;;4.95;;
49101;SDS011;34913;47.520;19.186;2023-06-14T06:05:59;6.82;;;5.35;;
49101;SDS011;34913;47.520;19.186;2023-06-14T06:08:25;9.35;;;4.85;;
49101;SDS011;34913;47.520;19.186;2023-06-14T06:10:51;7.47;;;4.70;;
49101;SDS011;34913;47.520;19.186;2023-06-14T06:13:17;6.65;;;4.65;;
49101;SDS011;34913;47.520;19.186;2023-06-14T06:15:42;7.53;;;5.00;;
49101;SDS011;34913;47.520;19.186;2023-06-14T06:18:08;8.27;;;4.85;;
49101;SDS011;34913;47.520;19.186;2023-06-14T06:20:33;6.28;;;4.50;;
49101;SDS011;34913;47.520;19.186;2023-06-14T06:22:59;6.20;;;5.25;;
49101;SDS011;34913;47.520;19.186;2023-06-14T06:25:26;6.68;;;4.78;;
49101;SDS011;34913;47.520;19.186;2023-06-14T06:27:57;6.43;;;5.03;;
49101;SDS011;34913;47.520;19.186;2023-06-14T06:30:22;7.38;;;5.00;;
49101;SDS011;34913;47.520;19.186;2023-06-14T06:32:48;7.93;;;5.15;;
49101;SDS011;34913;47.520;19.186;2023-06-14T06:35:14;6.20;;;4.40;;
49101;SDS011;34913;47.520;19.186;2023-06-14T06:37:40;6.57;;;4.47;;
49101;SDS011;34913;47.520;19.186;2023-06-14T06:40:06;9.55;;;4.65;;
49101;SDS011;34913;47.520;19.186;2023-06-14T06:42:33;6.75;;;4.75;;
49101;SDS011;34913;47.520;19.186;2023-06-14T06:44:59;5.35;;;4.28;;
49101;SDS011;34913;47.520;19.186;2023-06-14T06:47:24;6.13;;;4.15;;
49101;SDS011;34913;47.520;19.186;2023-06-14T06:49:50;6.22;;;3.90;;
49101;SDS011;34913;47.520;19.186;2023-06-14T06:52:15;5.22;;;3.70;;
49101;SDS011;34913;47.520;19.186;2023-06-14T06:54:41;6.20;;;3.95;;
49101;SDS011;34913;47.520;19.186;2023-06-14T06:57:06;5.60;;;4.10;;
49101;SDS011;34913;47.520;19.186;2023-06-14T06:59:32;6.20;;;3.97;;
49101;SDS011;34913;47.520;19.186;2023-06-14T07:01:58;6.72;;;4.10;;
49101;SDS011;34913;47.520;19.186;2023-06-14T07:04:24;6.05;;;4.10;;
49101;SDS011;34913;47.520;19.186;2023-06-14T07:06:49;5.53;;;4.50;;
49101;SDS011;34913;47.520;19.186;2023-06-14T07:09:15;6.03;;;4.55;;
49101;SDS011;34913;47.520;19.186;2023-06-14T07:11:42;7.18;;;4.32;;
49101;SDS011;34913;47.520;19.186;2023-06-14T07:14:08;6.53;;;4.25;;
49101;SDS011;34913;47.520;19.186;2023-06-14T07:16:34;5.82;;;4.40;;
49101;SDS011;34913;47.520;19.186;2023-06-14T07:19:00;6.15;;;4.13;;
49101;SDS011;34913;47.520;19.186;2023-06-14T07:21:27;9.48;;;4.18;;
49101;SDS011;34913;47.520;19.186;2023-06-14T07:23:53;5.68;;;4.10;;
49101;SDS011;34913;47.520;19.186;2023-06-14T07:26:18;5.53;;;4.07;;
49101;SDS011;34913;47.520;19.186;2023-06-14T07:28:44;7.30;;;4.32;;
49101;SDS011;34913;47.520;19.186;2023-06-14T07:31:12;6.40;;;4.30;;
49101;SDS011;34913;47.520;19.186;2023-06-14T07:33:38;8.50;;;4.53;;
49101;SDS011;34913;47.520;19.186;2023-06-14T07:36:04;6.50;;;4.28;;
49101;SDS011;34913;47.520;19.186;2023-06-14T07:38:30;10.77;;;4.60;;
49101;SDS011;34913;47.520;19.186;2023-06-14T07:40:55;8.75;;;4.47;;
49101;SDS011;34913;47.520;19.186;2023-06-14T07:43:20;7.13;;;4.50;;
49101;SDS011;34913;47.520;19.186;2023-06-14T07:45:46;6.32;;;4.47;;
49101;SDS011;34913;47.520;19.186;2023-06-14T07:48:11;6.47;;;4.45;;
49101;SDS011;34913;47.520;19.186;2023-06-14T07:50:37;5.65;;;4.53;;
49101;SDS011;34913;47.520;19.186;2023-06-14T07:53:02;6.03;;;4.00;;
49101;SDS011;34913;47.520;19.186;2023-06-14T07:55:27;6.75;;;4.20;;
49101;SDS011;34913;47.520;19.186;2023-06-14T07:57:53;7.63;;;4.53;;
49101;SDS011;34913;47.520;19.186;2023-06-14T08:00:19;8.85;;;4.13;;
49101;SDS011;34913;47.520;19.186;2023-06-14T08:02:45;4.93;;;3.92;;
49101;SDS011;34913;47.520;19.186;2023-06-14T08:05:11;4.63;;;3.85;;
49101;SDS011;34913;47.520;19.186;2023-06-14T08:07:37;5.28;;;4.28;;
49101;SDS011;34913;47.520;19.186;2023-06-14T08:10:05;5.82;;;4.18;;
49101;SDS011;34913;47.520;19.186;2023-06-14T08:12:32;6.22;;;3.83;;
49101;SDS011;34913;47.520;19.186;2023-06-14T08:14:59;4.93;;;4.18;;
49101;SDS011;34913;47.520;19.186;2023-06-14T08:17:24;5.13;;;4.40;;
49101;SDS011;34913;47.520;19.186;2023-06-14T08:19:50;7.57;;;4.40;;
49101;SDS011;34913;47.520;19.186;2023-06-14T08:22:15;11.95;;;4.43;;
49101;SDS011;34913;47.520;19.186;2023-06-14T08:24:41;5.28;;;4.13;;
49101;SDS011;34913;47.520;19.186;2023-06-14T08:27:07;6.78;;;4.15;;
49101;SDS011;34913;47.520;19.186;2023-06-14T08:29:32;6.50;;;4.00;;
49101;SDS011;34913;47.520;19.186;2023-06-14T08:31:58;6.13;;;4.07;;
49101;SDS011;34913;47.520;19.186;2023-06-14T08:34:23;7.07;;;4.50;;
49101;SDS011;34913;47.520;19.186;2023-06-14T08:36:52;5.75;;;4.00;;
49101;SDS011;34913;47.520;19.186;2023-06-14T08:39:17;6.22;;;3.95;;
49101;SDS011;34913;47.520;19.186;2023-06-14T08:41:43;7.88;;;4.40;;
49101;SDS011;34913;47.520;19.186;2023-06-14T08:44:11;5.00;;;3.65;;
49101;SDS011;34913;47.520;19.186;2023-06-14T08:46:37;5.95;;;3.42;;
49101;SDS011;34913;47.520;19.186;2023-06-14T08:49:03;5.25;;;3.80;;
49101;SDS011;34913;47.520;19.186;2023-06-14T08:51:30;6.32;;;4.15;;
49101;SDS011;34913;47.520;19.186;2023-06-14T08:54:01;4.45;;;3.70;;
49101;SDS011;34913;47.520;19.186;2023-06-14T08:56:29;6.65;;;4.13;;
49101;SDS011;34913;47.520;19.186;2023-06-14T08:58:55;7.00;;;3.85;;
49101;SDS011;34913;47.520;19.186;2023-06-14T09:01:22;8.13;;;3.90;;
49101;SDS011;34913;47.520;19.186;2023-06-14T09:03:49;5.57;;;3.83;;
49101;SDS011;34913;47.520;19.186;2023-06-14T09:06:16;5.53;;;3.53;;
49101;SDS011;34913;47.520;19.186;2023-06-14T09:08:43;6.75;;;3.60;;
49101;SDS011;34913;47.520;19.186;2023-06-14T09:11:10;7.22;;;3.50;;
49101;SDS011;34913;47.520;19.186;2023-06-14T09:13:40;6.22;;;4.07;;
49101;SDS011;34913;47.520;19.186;2023-06-14T09:16:06;6.13;;;3.53;;
49101;SDS011;34913;47.520;19.186;2023-06-14T09:18:36;7.90;;;4.40;;
49101;SDS011;34913;47.520;19.186;2023-06-14T09:21:06;5.47;;;4.18;;
49101;SDS011;34913;47.520;19.186;2023-06-14T09:26:14;6.00;;;4.13;;
49101;SDS011;34913;47.520;19.186;2023-06-14T09:28:47;5.07;;;3.00;;
49101;SDS011;34913;47.520;19.186;2023-06-14T09:31:14;3.17;;;2.70;;
49101;SDS011;34913;47.520;19.186;2023-06-14T09:33:41;4.55;;;2.75;;
49101;SDS011;34913;47.520;19.186;2023-06-14T09:36:13;5.05;;;2.90;;
49101;SDS011;34913;47.520;19.186;2023-06-14T09:38:51;4.47;;;2.90;;
49101;SDS011;34913;47.520;19.186;2023-06-14T09:41:17;10.38;;;3.17;;
49101;SDS011;34913;47.520;19.186;2023-06-14T09:43:43;11.38;;;3.90;;
49101;SDS011;34913;47.520;19.186;2023-06-14T09:46:10;4.88;;;2.90;;
49101;SDS011;34913;47.520;19.186;2023-06-14T09:48:36;4.85;;;2.88;;
49101;SDS011;34913;47.520;19.186;2023-06-14T09:51:01;5.88;;;3.20;;
49101;SDS011;34913;47.520;19.186;2023-06-14T09:53:29;6.13;;;3.00;;
49101;SDS011;34913;47.520;19.186;2023-06-14T09:55:56;4.32;;;2.90;;
49101;SDS011;34913;47.520;19.186;2023-06-14T09:58:23;4.47;;;3.10;;
49101;SDS011;34913;47.520;19.186;2023-06-14T10:00:51;6.68;;;3.30;;
49101;SDS011;34913;47.520;19.186;2023-06-14T10:03:21;4.65;;;2.90;;
49101;SDS011;34913;47.520;19.186;2023-06-14T10:05:52;5.90;;;3.20;;
49101;SDS011;34913;47.520;19.186;2023-06-14T10:08:23;12.35;;;3.05;;
49101;SDS011;34913;47.520;19.186;2023-06-14T10:10:53;3.45;;;2.70;;
49101;SDS011;34913;47.520;19.186;2023-06-14T10:13:20;4.95;;;3.00;;
49101;SDS011;34913;47.520;19.186;2023-06-14T10:16:06;8.55;;;3.65;;
49101;SDS011;34913;47.520;19.186;2023-06-14T10:23:48;4.85;;;2.75;;
49101;SDS011;34913;47.520;19.186;2023-06-14T10:26:22;8.98;;;2.97;;
49101;SDS011;34913;47.520;19.186;2023-06-14T10:31:42;7.03;;;2.83;;
49101;SDS011;34913;47.520;19.186;2023-06-14T10:34:08;5.35;;;2.45;;
49101;SDS011;34913;47.520;19.186;2023-06-14T10:36:34;3.97;;;2.45;;
49101;SDS011;34913;47.520;19.186;2023-06-14T10:41:29;3.15;;;2.42;;
49101;SDS011;34913;47.520;19.186;2023-06-14T10:46:56;4.85;;;2.35;;
49101;SDS011;34913;47.520;19.186;2023-06-14T10:49:40;3.55;;;2.40;;
49101;SDS011;34913;47.520;19.186;2023-06-14T10:52:08;6.07;;;2.50;;
49101;SDS011;34913;47.520;19.186;2023-06-14T10:57:25;5.73;;;2.37;;
49101;SDS011;34913;47.520;19.186;2023-06-14T10:59:50;4.32;;;2.30;;
49101;SDS011;34913;47.520;19.186;2023-06-14T11:04:51;4.78;;;2.65;;
49101;SDS011;34913;47.520;19.186;2023-06-14T11:13:02;5.53;;;2.80;;
49101;SDS011;34913;47.520;19.186;2023-06-14T11:15:31;4.70;;;2.95;;
49101;SDS011;34913;47.520;19.186;2023-06-14T11:18:05;4.45;;;2.65;;
49101;SDS011;34913;47.520;19.186;2023-06-14T11:20:32;4.88;;;2.72;;
49101;SDS011;34913;47.520;19.186;2023-06-14T11:22:59;3.55;;;2.50;;
49101;SDS011;34913;47.520;19.186;2023-06-14T11:25:25;7.40;;;2.50;;
49101;SDS011;34913;47.520;19.186;2023-06-14T11:27:53;4.63;;;2.40;;
49101;SDS011;34913;47.520;19.186;2023-06-14T11:30:19;4.40;;;2.95;;
49101;SDS011;34913;47.520;19.186;2023-06-14T11:32:48;6.03;;;2.90;;
49101;SDS011;34913;47.520;19.186;2023-06-14T11:35:15;6.63;;;2.80;;
49101;SDS011;34913;47.520;19.186;2023-06-14T11:37:42;4.22;;;2.97;;
49101;SDS011;34913;47.520;19.186;2023-06-14T11:40:09;4.50;;;3.10;;
49101;SDS011;34913;47.520;19.186;2023-06-14T11:42:36;3.95;;;2.80;;
49101;SDS011;34913;47.520;19.186;2023-06-14T11:45:03;4.15;;;2.97;;
49101;SDS011;34913;47.520;19.186;2023-06-14T11:47:36;3.70;;;2.50;;
49101;SDS011;34913;47.520;19.186;2023-06-14T11:50:02;3.85;;;2.72;;
49101;SDS011;34913;47.520;19.186;2023-06-14T11:52:29;5.68;;;2.90;;
49101;SDS011;34913;47.520;19.186;2023-06-14T11:54:54;7.00;;;2.83;;
49101;SDS011;34913;47.520;19.186;2023-06-14T11:57:21;3.85;;;2.75;;
49101;SDS011;34913;47.520;19.186;2023-06-14T11:59:46;4.18;;;3.35;;
49101;SDS011;34913;47.520;19.186;2023-06-14T12:02:14;4.05;;;2.85;;
49101;SDS011;34913;47.520;19.186;2023-06-14T12:04:43;3.95;;;3.03;;
49101;SDS011;34913;47.520;19.186;2023-06-14T12:07:09;5.13;;;2.60;;
49101;SDS011;34913;47.520;19.186;2023-06-14T12:12:24;3.60;;;2.83;;
49101;SDS011;34913;47.520;19.186;2023-06-14T12:14:50;6.20;;;2.80;;
49101;SDS011;34913;47.520;19.186;2023-06-14T12:17:17;5.20;;;2.80;;
49101;SDS011;34913;47.520;19.186;2023-06-14T12:19:43;5.28;;;2.83;;
49101;SDS011;34913;47.520;19.186;2023-06-14T12:22:10;3.88;;;2.80;;
49101;SDS011;34913;47.520;19.186;2023-06-14T12:24:36;4.32;;;2.83;;
49101;SDS011;34913;47.520;19.186;2023-06-14T12:27:03;4.47;;;2.65;;
49101;SDS011;34913;47.520;19.186;2023-06-14T12:29:29;4.18;;;2.92;;
49101;SDS011;34913;47.520;19.186;2023-06-14T12:31:56;3.75;;;2.75;;
49101;SDS011;34913;47.520;19.186;2023-06-14T12:34:25;5.22;;;2.70;;
49101;SDS011;34913;47.520;19.186;2023-06-14T12:36:55;4.07;;;2.80;;
49101;SDS011;34913;47.520;19.186;2023-06-14T12:39:21;4.18;;;2.55;;
49101;SDS011;34913;47.520;19.186;2023-06-14T12:41:47;5.82;;;3.00;;
49101;SDS011;34913;47.520;19.186;2023-06-14T12:44:13;5.05;;;3.08;;
49101;SDS011;34913;47.520;19.186;2023-06-14T12:46:39;3.67;;;2.40;;
49101;SDS011;34913;47.520;19.186;2023-06-14T12:49:07;3.72;;;2.85;;
49101;SDS011;34913;47.520;19.186;2023-06-14T12:51:33;4.55;;;2.90;;
49101;SDS011;34913;47.520;19.186;2023-06-14T12:53:59;4.38;;;2.60;;
49101;SDS011;34913;47.520;19.186;2023-06-14T12:56:24;3.92;;;3.10;;
49101;SDS011;34913;47.520;19.186;2023-06-14T12:58:51;3.80;;;2.80;;
49101;SDS011;34913;47.520;19.186;2023-06-14T13:01:16;4.88;;;3.10;;
49101;SDS011;34913;47.520;19.186;2023-06-14T13:03:42;3.10;;;2.80;;
49101;SDS011;34913;47.520;19.186;2023-06-14T13:06:07;3.70;;;2.70;;
49101;SDS011;34913;47.520;19.186;2023-06-14T13:08:33;4.50;;;2.78;;
49101;SDS011;34913;47.520;19.186;2023-06-14T13:10:58;3.60;;;2.83;;
49101;SDS011;34913;47.520;19.186;2023-06-14T13:13:24;4.88;;;2.83;;
49101;SDS011;34913;47.520;19.186;2023-06-14T13:15:49;3.40;;;2.60;;
49101;SDS011;34913;47.520;19.186;2023-06-14T13:18:15;3.05;;;2.30;;
49101;SDS011;34913;47.520;19.186;2023-06-14T13:20:41;3.65;;;2.53;;
49101;SDS011;34913;47.520;19.186;2023-06-14T13:23:07;2.83;;;2.60;;
49101;SDS011;34913;47.520;19.186;2023-06-14T13:25:36;3.10;;;2.42;;
49101;SDS011;34913;47.520;19.186;2023-06-14T13:28:03;7.40;;;2.53;;
49101;SDS011;34913;47.520;19.186;2023-06-14T13:30:29;5.20;;;3.15;;
49101;SDS011;34913;47.520;19.186;2023-06-14T13:32:55;3.70;;;2.50;;
49101;SDS011;34913;47.520;19.186;2023-06-14T13:35:22;3.08;;;2.50;;
49101;SDS011;34913;47.520;19.186;2023-06-14T13:37:48;3.17;;;2.72;;
49101;SDS011;34913;47.520;19.186;2023-06-14T13:40:14;4.80;;;2.30;;
49101;SDS011;34913;47.520;19.186;2023-06-14T13:42:39;2.97;;;2.50;;
49101;SDS011;34913;47.520;19.186;2023-06-14T13:45:05;6.07;;;2.85;;
49101;SDS011;34913;47.520;19.186;2023-06-14T13:47:32;3.75;;;2.20;;
49101;SDS011;34913;47.520;19.186;2023-06-14T13:49:57;4.13;;;2.55;;
49101;SDS011;34913;47.520;19.186;2023-06-14T13:52:23;2.65;;;2.30;;
49101;SDS011;34913;47.520;19.186;2023-06-14T13:54:49;3.72;;;2.65;;
49101;SDS011;34913;47.520;19.186;2023-06-14T13:57:14;8.48;;;2.50;;
49101;SDS011;34913;47.520;19.186;2023-06-14T13:59:40;2.65;;;2.25;;
49101;SDS011;34913;47.520;19.186;2023-06-14T14:02:06;3.50;;;2.50;;
49101;SDS011;34913;47.520;19.186;2023-06-14T14:04:33;3.55;;;2.42;;
49101;SDS011;34913;47.520;19.186;2023-06-14T14:07:00;2.85;;;2.20;;
49101;SDS011;34913;47.520;19.186;2023-06-14T14:09:26;2.75;;;2.25;;
49101;SDS011;34913;47.520;19.186;2023-06-14T14:11:51;3.13;;;2.20;;
49101;SDS011;34913;47.520;19.186;2023-06-14T14:14:17;3.75;;;2.30;;
49101;SDS011;34913;47.520;19.186;2023-06-14T14:16:42;8.55;;;2.92;;
49101;SDS011;34913;47.520;19.186;2023-06-14T14:19:08;5.78;;;2.50;;
49101;SDS011;34913;47.520;19.186;2023-06-14T14:21:33;3.78;;;2.40;;
49101;SDS011;34913;47.520;19.186;2023-06-14T14:24:00;3.10;;;2.50;;
49101;SDS011;34913;47.520;19.186;2023-06-14T14:26:25;2.90;;;2.25;;
49101;SDS011;34913;47.520;19.186;2023-06-14T14:28:51;2.47;;;2.28;;
49101;SDS011;34913;47.520;19.186;2023-06-14T14:31:17;3.22;;;2.17;;
49101;SDS011;34913;47.520;19.186;2023-06-14T14:33:43;3.25;;;2.30;;
49101;SDS011;34913;47.520;19.186;2023-06-14T14:36:08;6.15;;;2.55;;
49101;SDS011;34913;47.520;19.186;2023-06-14T14:38:34;2.53;;;2.30;;
49101;SDS011;34913;47.520;19.186;2023-06-14T14:40:59;3.33;;;2.05;;
49101;SDS011;34913;47.520;19.186;2023-06-14T14:43:25;2.58;;;2.20;;
49101;SDS011;34913;47.520;19.186;2023-06-14T14:45:50;4.40;;;2.33;;
49101;SDS011;34913;47.520;19.186;2023-06-14T14:48:16;2.88;;;2.10;;
49101;SDS011;34913;47.520;19.186;2023-06-14T14:50:41;4.43;;;2.17;;
49101;SDS011;34913;47.520;19.186;2023-06-14T14:53:06;3.05;;;2.17;;
49101;SDS011;34913;47.520;19.186;2023-06-14T14:55:32;4.57;;;2.38;;
49101;SDS011;34913;47.520;19.186;2023-06-14T14:58:01;4.28;;;2.30;;
49101;SDS011;34913;47.520;19.186;2023-06-14T15:00:27;3.65;;;2.10;;
49101;SDS011;34913;47.520;19.186;2023-06-14T15:02:52;2.28;;;2.08;;